sensor_id;sensor_type;location;lat;lon;timestamp;P1;durP1;ratioP1;P2;durP2;ratioP2
17741;SDS011;8993;51.822;-2.268;2022-07-03T00:01:02;7.76;;;1.03;;
17741;SDS011;8993;51.822;-2.268;2022-07-03T00:06:07;11.36;;;1.31;;
17741;SDS011;8993;51.822;-2.268;2022-07-03T00:11:11;6.24;;;1.08;;
17741;SDS011;8993;51.822;-2.268;2022-07-03T00:16:15;9.11;;;1.33;;
17741;SDS011;8993;51.822;-2.268;2022-07-03T00:21:19;7.77;;;1.03;;
17741;SDS011;8993;51.822;-2.268;2022-07-03T00:26:23;7.95;;;1.14;;
17741;SDS011;8993;51.822;-2.268;2022-07-03T00:31:28;8.54;;;1.35;;
17741;SDS011;8993;51.822;-2.268;2022-07-03T00:36:34;10.73;;;1.37;;
17741;SDS011;8993;51.822;-2.268;2022-07-03T00:41:35;11.42;;;1.33;;
17741;SDS011;8993;51.822;-2.268;2022-07-03T00:46:41;9.03;;;1.22;;
17741;SDS011;8993;51.822;-2.268;2022-07-03T00:51:44;8.62;;;1.32;;
17741;SDS011;8993;51.822;-2.268;2022-07-03T00:56:50;11.94;;;1.62;;
17741;SDS011;8993;51.822;-2.268;2022-07-03T01:01:54;10.85;;;1.50;;
17741;SDS011;8993;51.822;-2.268;2022-07-03T01:07:00;12.49;;;1.69;;
17741;SDS011;8993;51.822;-2.268;2022-07-03T01:12:04;10.63;;;1.61;;
17741;SDS011;8993;51.822;-2.268;2022-07-03T01:17:09;12.16;;;1.88;;
17741;SDS011;8993;51.822;-2.268;2022-07-03T01:22:19;11.16;;;1.58;;
17741;SDS011;8993;51.822;-2.268;2022-07-03T01:27:18;9.17;;;1.54;;
17741;SDS011;8993;51.822;-2.268;2022-07-03T01:32:21;10.81;;;1.58;;
17741;SDS011;8993;51.822;-2.268;2022-07-03T01:37:25;11.80;;;1.82;;
17741;SDS011;8993;51.822;-2.268;2022-07-03T01:42:29;9.27;;;1.95;;
17741;SDS011;8993;51.822;-2.268;2022-07-03T01:47:33;7.75;;;1.76;;
17741;SDS011;8993;51.822;-2.268;2022-07-03T01:52:37;9.00;;;1.88;;
17741;SDS011;8993;51.822;-2.268;2022-07-03T01:57:42;10.47;;;2.42;;
17741;SDS011;8993;51.822;-2.268;2022-07-03T02:02:48;10.52;;;2.82;;
17741;SDS011;8993;51.822;-2.268;2022-07-03T02:07:51;15.25;;;2.90;;
17741;SDS011;8993;51.822;-2.268;2022-07-03T02:12:56;12.78;;;2.84;;
17741;SDS011;8993;51.822;-2.268;2022-07-03T02:17:58;13.66;;;2.92;;
17741;SDS011;8993;51.822;-2.268;2022-07-03T02:23:02;10.21;;;2.30;;
17741;SDS011;8993;51.822;-2.268;2022-07-03T02:28:10;10.26;;;2.20;;
17741;SDS011;8993;51.822;-2.268;2022-07-03T02:33:12;10.19;;;2.24;;
17741;SDS011;8993;51.822;-2.268;2022-07-03T02:38:16;11.00;;;2.40;;
17741;SDS011;8993;51.822;-2.268;2022-07-03T02:43:23;11.54;;;2.34;;
17741;SDS011;8993;51.822;-2.268;2022-07-03T02:48:26;10.90;;;2.17;;
17741;SDS011;8993;51.822;-2.268;2022-07-03T02:53:30;8.23;;;1.97;;
17741;SDS011;8993;51.822;-2.268;2022-07-03T02:58:44;10.07;;;2.31;;
17741;SDS011;8993;51.822;-2.268;2022-07-03T03:03:38;13.97;;;2.65;;
17741;SDS011;8993;51.822;-2.268;2022-07-03T03:08:43;11.10;;;2.38;;
17741;SDS011;8993;51.822;-2.268;2022-07-03T03:13:47;8.85;;;2.03;;
17741;SDS011;8993;51.822;-2.268;2022-07-03T03:18:51;7.02;;;1.83;;
17741;SDS011;8993;51.822;-2.268;2022-07-03T03:23:55;6.86;;;1.76;;
17741;SDS011;8993;51.822;-2.268;2022-07-03T03:28:59;5.85;;;1.69;;
17741;SDS011;8993;51.822;-2.268;2022-07-03T03:34:04;7.89;;;1.95;;
17741;SDS011;8993;51.822;-2.268;2022-07-03T03:39:08;10.22;;;2.38;;
17741;SDS011;8993;51.822;-2.268;2022-07-03T03:44:12;7.04;;;1.99;;
17741;SDS011;8993;51.822;-2.268;2022-07-03T03:49:16;5.68;;;1.96;;
17741;SDS011;8993;51.822;-2.268;2022-07-03T03:54:20;6.51;;;1.91;;
17741;SDS011;8993;51.822;-2.268;2022-07-03T03:59:26;6.01;;;1.77;;
17741;SDS011;8993;51.822;-2.268;2022-07-03T04:04:31;13.02;;;2.37;;
17741;SDS011;8993;51.822;-2.268;2022-07-03T04:09:35;15.88;;;3.08;;
17741;SDS011;8993;51.822;-2.268;2022-07-03T04:14:39;12.97;;;3.00;;
17741;SDS011;8993;51.822;-2.268;2022-07-03T04:19:43;7.42;;;1.95;;
17741;SDS011;8993;51.822;-2.268;2022-07-03T04:24:47;9.69;;;1.85;;
17741;SDS011;8993;51.822;-2.268;2022-07-03T04:29:51;5.82;;;1.60;;
17741;SDS011;8993;51.822;-2.268;2022-07-03T04:34:55;8.06;;;1.80;;
17741;SDS011;8993;51.822;-2.268;2022-07-03T04:39:59;7.71;;;1.91;;
17741;SDS011;8993;51.822;-2.268;2022-07-03T04:45:03;9.48;;;1.91;;
17741;SDS011;8993;51.822;-2.268;2022-07-03T04:50:07;12.75;;;2.06;;
17741;SDS011;8993;51.822;-2.268;2022-07-03T04:55:12;7.62;;;1.80;;
17741;SDS011;8993;51.822;-2.268;2022-07-03T05:00:16;11.02;;;2.26;;
17741;SDS011;8993;51.822;-2.268;2022-07-03T05:05:19;16.94;;;3.21;;
17741;SDS011;8993;51.822;-2.268;2022-07-03T05:10:23;13.01;;;2.99;;
17741;SDS011;8993;51.822;-2.268;2022-07-03T05:15:27;14.35;;;2.76;;
17741;SDS011;8993;51.822;-2.268;2022-07-03T05:20:31;12.65;;;2.57;;
17741;SDS011;8993;51.822;-2.268;2022-07-03T05:25:35;7.84;;;2.35;;
17741;SDS011;8993;51.822;-2.268;2022-07-03T05:30:40;12.01;;;2.64;;
17741;SDS011;8993;51.822;-2.268;2022-07-03T05:35:44;9.82;;;2.70;;
17741;SDS011;8993;51.822;-2.268;2022-07-03T05:40:48;13.22;;;3.05;;
17741;SDS011;8993;51.822;-2.268;2022-07-03T05:45:52;14.80;;;3.26;;
17741;SDS011;8993;51.822;-2.268;2022-07-03T05:50:56;14.17;;;3.31;;
17741;SDS011;8993;51.822;-2.268;2022-07-03T05:56:00;11.63;;;2.57;;
17741;SDS011;8993;51.822;-2.268;2022-07-03T06:01:04;11.12;;;2.63;;
17741;SDS011;8993;51.822;-2.268;2022-07-03T06:06:08;13.33;;;3.47;;
17741;SDS011;8993;51.822;-2.268;2022-07-03T06:11:13;10.65;;;3.80;;
17741;SDS011;8993;51.822;-2.268;2022-07-03T06:16:18;12.66;;;3.76;;
17741;SDS011;8993;51.822;-2.268;2022-07-03T06:21:23;10.37;;;2.22;;
17741;SDS011;8993;51.822;-2.268;2022-07-03T06:26:27;9.63;;;1.95;;
17741;SDS011;8993;51.822;-2.268;2022-07-03T06:31:32;10.29;;;1.90;;
17741;SDS011;8993;51.822;-2.268;2022-07-03T06:36:36;9.07;;;2.00;;
17741;SDS011;8993;51.822;-2.268;2022-07-03T06:41:40;11.59;;;2.54;;
17741;SDS011;8993;51.822;-2.268;2022-07-03T06:46:44;11.37;;;2.42;;
17741;SDS011;8993;51.822;-2.268;2022-07-03T06:51:48;8.77;;;2.33;;
17741;SDS011;8993;51.822;-2.268;2022-07-03T06:56:52;12.69;;;2.36;;
17741;SDS011;8993;51.822;-2.268;2022-07-03T07:01:56;11.06;;;2.34;;
17741;SDS011;8993;51.822;-2.268;2022-07-03T07:07:00;8.45;;;2.16;;
17741;SDS011;8993;51.822;-2.268;2022-07-03T07:12:04;8.15;;;2.23;;
17741;SDS011;8993;51.822;-2.268;2022-07-03T07:17:08;11.34;;;2.17;;
17741;SDS011;8993;51.822;-2.268;2022-07-03T07:22:12;10.05;;;2.05;;
17741;SDS011;8993;51.822;-2.268;2022-07-03T07:27:16;8.75;;;1.84;;
17741;SDS011;8993;51.822;-2.268;2022-07-03T07:32:20;8.66;;;1.54;;
17741;SDS011;8993;51.822;-2.268;2022-07-03T07:37:24;8.30;;;1.47;;
17741;SDS011;8993;51.822;-2.268;2022-07-03T07:42:28;6.17;;;1.48;;
17741;SDS011;8993;51.822;-2.268;2022-07-03T07:47:33;7.75;;;1.39;;
17741;SDS011;8993;51.822;-2.268;2022-07-03T07:52:36;7.47;;;1.48;;
17741;SDS011;8993;51.822;-2.268;2022-07-03T07:57:42;6.80;;;1.28;;
17741;SDS011;8993;51.822;-2.268;2022-07-03T08:02:45;6.07;;;0.98;;
17741;SDS011;8993;51.822;-2.268;2022-07-03T08:07:49;5.79;;;1.10;;
17741;SDS011;8993;51.822;-2.268;2022-07-03T08:12:53;6.11;;;1.05;;
17741;SDS011;8993;51.822;-2.268;2022-07-03T08:17:57;9.92;;;1.33;;
17741;SDS011;8993;51.822;-2.268;2022-07-03T08:23:02;6.90;;;1.17;;
17741;SDS011;8993;51.822;-2.268;2022-07-03T08:28:05;9.73;;;1.04;;
17741;SDS011;8993;51.822;-2.268;2022-07-03T08:33:10;4.03;;;0.81;;
17741;SDS011;8993;51.822;-2.268;2022-07-03T08:38:13;4.79;;;0.84;;
17741;SDS011;8993;51.822;-2.268;2022-07-03T08:43:18;4.44;;;0.81;;
17741;SDS011;8993;51.822;-2.268;2022-07-03T08:48:22;5.40;;;0.94;;
17741;SDS011;8993;51.822;-2.268;2022-07-03T08:53:27;5.67;;;0.79;;
17741;SDS011;8993;51.822;-2.268;2022-07-03T08:58:31;5.54;;;0.75;;
17741;SDS011;8993;51.822;-2.268;2022-07-03T09:03:35;4.37;;;0.97;;
17741;SDS011;8993;51.822;-2.268;2022-07-03T09:08:40;5.67;;;0.94;;
17741;SDS011;8993;51.822;-2.268;2022-07-03T09:13:44;4.84;;;0.88;;
17741;SDS011;8993;51.822;-2.268;2022-07-03T09:18:48;4.56;;;0.85;;
17741;SDS011;8993;51.822;-2.268;2022-07-03T09:23:53;4.65;;;0.78;;
17741;SDS011;8993;51.822;-2.268;2022-07-03T09:28:57;4.85;;;0.64;;
17741;SDS011;8993;51.822;-2.268;2022-07-03T09:34:01;4.12;;;0.59;;
17741;SDS011;8993;51.822;-2.268;2022-07-03T09:39:20;3.45;;;0.65;;
17741;SDS011;8993;51.822;-2.268;2022-07-03T09:44:09;3.63;;;0.60;;
17741;SDS011;8993;51.822;-2.268;2022-07-03T09:49:13;3.48;;;0.60;;
17741;SDS011;8993;51.822;-2.268;2022-07-03T09:54:17;3.00;;;0.58;;
17741;SDS011;8993;51.822;-2.268;2022-07-03T09:59:21;3.13;;;0.59;;
17741;SDS011;8993;51.822;-2.268;2022-07-03T10:04:25;3.41;;;0.68;;
17741;SDS011;8993;51.822;-2.268;2022-07-03T10:09:30;3.29;;;0.64;;
17741;SDS011;8993;51.822;-2.268;2022-07-03T10:14:35;4.17;;;0.65;;
17741;SDS011;8993;51.822;-2.268;2022-07-03T10:19:39;5.17;;;0.77;;
17741;SDS011;8993;51.822;-2.268;2022-07-03T10:24:43;3.67;;;0.70;;
17741;SDS011;8993;51.822;-2.268;2022-07-03T10:29:47;6.79;;;0.74;;
17741;SDS011;8993;51.822;-2.268;2022-07-03T10:34:52;4.52;;;0.78;;
17741;SDS011;8993;51.822;-2.268;2022-07-03T10:39:58;5.05;;;0.67;;
17741;SDS011;8993;51.822;-2.268;2022-07-03T10:45:04;2.70;;;0.58;;
17741;SDS011;8993;51.822;-2.268;2022-07-03T10:50:07;3.69;;;0.68;;
17741;SDS011;8993;51.822;-2.268;2022-07-03T10:55:11;2.42;;;0.68;;
17741;SDS011;8993;51.822;-2.268;2022-07-03T11:00:15;2.86;;;0.62;;
17741;SDS011;8993;51.822;-2.268;2022-07-03T11:05:22;3.70;;;0.74;;
17741;SDS011;8993;51.822;-2.268;2022-07-03T11:10:29;3.93;;;0.59;;
17741;SDS011;8993;51.822;-2.268;2022-07-03T11:15:30;4.33;;;0.76;;
17741;SDS011;8993;51.822;-2.268;2022-07-03T11:20:37;4.36;;;0.60;;
17741;SDS011;8993;51.822;-2.268;2022-07-03T11:25:39;1.89;;;0.49;;
17741;SDS011;8993;51.822;-2.268;2022-07-03T11:31:00;3.40;;;0.60;;
17741;SDS011;8993;51.822;-2.268;2022-07-03T11:35:48;3.81;;;0.64;;
17741;SDS011;8993;51.822;-2.268;2022-07-03T11:40:52;4.86;;;0.70;;
17741;SDS011;8993;51.822;-2.268;2022-07-03T11:45:56;5.52;;;0.92;;
17741;SDS011;8993;51.822;-2.268;2022-07-03T11:51:03;3.35;;;0.79;;
17741;SDS011;8993;51.822;-2.268;2022-07-03T11:56:07;4.34;;;0.91;;
17741;SDS011;8993;51.822;-2.268;2022-07-03T12:01:11;2.93;;;0.72;;
17741;SDS011;8993;51.822;-2.268;2022-07-03T12:06:15;3.16;;;0.64;;
17741;SDS011;8993;51.822;-2.268;2022-07-03T12:11:19;2.82;;;0.65;;
17741;SDS011;8993;51.822;-2.268;2022-07-03T12:16:31;2.27;;;0.66;;
17741;SDS011;8993;51.822;-2.268;2022-07-03T12:21:31;2.33;;;0.66;;
17741;SDS011;8993;51.822;-2.268;2022-07-03T12:26:32;2.70;;;0.83;;
17741;SDS011;8993;51.822;-2.268;2022-07-03T12:31:38;2.61;;;0.81;;
17741;SDS011;8993;51.822;-2.268;2022-07-03T12:36:39;1.78;;;0.54;;
17741;SDS011;8993;51.822;-2.268;2022-07-03T12:41:43;2.19;;;0.58;;
17741;SDS011;8993;51.822;-2.268;2022-07-03T12:46:48;1.69;;;0.35;;
17741;SDS011;8993;51.822;-2.268;2022-07-03T12:51:53;1.14;;;0.36;;
17741;SDS011;8993;51.822;-2.268;2022-07-03T12:57:02;3.31;;;0.45;;
17741;SDS011;8993;51.822;-2.268;2022-07-03T13:02:01;1.40;;;0.42;;
17741;SDS011;8993;51.822;-2.268;2022-07-03T13:07:05;1.41;;;0.36;;
17741;SDS011;8993;51.822;-2.268;2022-07-03T13:12:09;1.92;;;0.64;;
17741;SDS011;8993;51.822;-2.268;2022-07-03T13:17:13;1.70;;;0.54;;
17741;SDS011;8993;51.822;-2.268;2022-07-03T13:22:17;2.40;;;0.54;;
17741;SDS011;8993;51.822;-2.268;2022-07-03T13:27:21;2.20;;;0.46;;
17741;SDS011;8993;51.822;-2.268;2022-07-03T13:32:25;1.58;;;0.43;;
17741;SDS011;8993;51.822;-2.268;2022-07-03T13:37:29;2.24;;;0.50;;
17741;SDS011;8993;51.822;-2.268;2022-07-03T13:42:34;1.82;;;0.55;;
17741;SDS011;8993;51.822;-2.268;2022-07-03T13:47:37;1.91;;;0.45;;
17741;SDS011;8993;51.822;-2.268;2022-07-03T13:52:41;2.98;;;0.48;;
17741;SDS011;8993;51.822;-2.268;2022-07-03T13:57:45;2.56;;;0.49;;
17741;SDS011;8993;51.822;-2.268;2022-07-03T14:02:49;2.04;;;0.39;;
17741;SDS011;8993;51.822;-2.268;2022-07-03T14:07:54;3.11;;;0.46;;
17741;SDS011;8993;51.822;-2.268;2022-07-03T14:12:58;1.13;;;0.43;;
17741;SDS011;8993;51.822;-2.268;2022-07-03T14:18:03;1.99;;;0.41;;
17741;SDS011;8993;51.822;-2.268;2022-07-03T14:23:06;1.87;;;0.39;;
17741;SDS011;8993;51.822;-2.268;2022-07-03T14:28:11;2.45;;;0.58;;
17741;SDS011;8993;51.822;-2.268;2022-07-03T14:33:16;3.70;;;0.48;;
17741;SDS011;8993;51.822;-2.268;2022-07-03T14:38:19;2.55;;;0.50;;
17741;SDS011;8993;51.822;-2.268;2022-07-03T14:43:24;4.22;;;0.51;;
17741;SDS011;8993;51.822;-2.268;2022-07-03T14:48:27;1.78;;;0.33;;
17741;SDS011;8993;51.822;-2.268;2022-07-03T14:53:32;1.62;;;0.35;;
17741;SDS011;8993;51.822;-2.268;2022-07-03T14:58:36;3.11;;;0.69;;
17741;SDS011;8993;51.822;-2.268;2022-07-03T15:03:42;1.52;;;0.42;;
17741;SDS011;8993;51.822;-2.268;2022-07-03T15:08:48;2.23;;;0.45;;
17741;SDS011;8993;51.822;-2.268;2022-07-03T15:13:49;1.69;;;0.43;;
17741;SDS011;8993;51.822;-2.268;2022-07-03T15:18:53;2.31;;;0.35;;
17741;SDS011;8993;51.822;-2.268;2022-07-03T15:23:59;1.33;;;0.36;;
17741;SDS011;8993;51.822;-2.268;2022-07-03T15:29:02;1.66;;;0.40;;
17741;SDS011;8993;51.822;-2.268;2022-07-03T15:34:06;0.99;;;0.31;;
17741;SDS011;8993;51.822;-2.268;2022-07-03T15:39:11;2.06;;;0.33;;
17741;SDS011;8993;51.822;-2.268;2022-07-03T15:44:17;1.73;;;0.36;;
17741;SDS011;8993;51.822;-2.268;2022-07-03T15:49:22;2.17;;;0.33;;
17741;SDS011;8993;51.822;-2.268;2022-07-03T15:54:23;2.20;;;0.63;;
17741;SDS011;8993;51.822;-2.268;2022-07-03T15:59:27;1.01;;;0.24;;
17741;SDS011;8993;51.822;-2.268;2022-07-03T16:04:33;0.88;;;0.33;;
17741;SDS011;8993;51.822;-2.268;2022-07-03T16:09:34;1.91;;;0.30;;
17741;SDS011;8993;51.822;-2.268;2022-07-03T16:14:39;1.03;;;0.31;;
17741;SDS011;8993;51.822;-2.268;2022-07-03T16:19:43;2.12;;;0.26;;
17741;SDS011;8993;51.822;-2.268;2022-07-03T16:24:47;1.78;;;0.32;;
17741;SDS011;8993;51.822;-2.268;2022-07-03T16:29:51;1.15;;;0.35;;
17741;SDS011;8993;51.822;-2.268;2022-07-03T16:34:56;2.15;;;0.28;;
17741;SDS011;8993;51.822;-2.268;2022-07-03T16:40:00;1.25;;;0.27;;
17741;SDS011;8993;51.822;-2.268;2022-07-03T16:45:05;1.27;;;0.25;;
17741;SDS011;8993;51.822;-2.268;2022-07-03T16:50:10;1.13;;;0.26;;
17741;SDS011;8993;51.822;-2.268;2022-07-03T17:00:19;1.46;;;0.27;;
17741;SDS011;8993;51.822;-2.268;2022-07-03T17:05:23;1.27;;;0.25;;
17741;SDS011;8993;51.822;-2.268;2022-07-03T17:10:26;2.19;;;0.29;;
17741;SDS011;8993;51.822;-2.268;2022-07-03T17:15:30;1.05;;;0.21;;
17741;SDS011;8993;51.822;-2.268;2022-07-03T17:20:36;1.20;;;0.23;;
17741;SDS011;8993;51.822;-2.268;2022-07-03T17:25:40;1.54;;;0.28;;
17741;SDS011;8993;51.822;-2.268;2022-07-03T17:30:44;1.47;;;0.27;;
17741;SDS011;8993;51.822;-2.268;2022-07-03T17:35:50;1.46;;;0.26;;
17741;SDS011;8993;51.822;-2.268;2022-07-03T17:40:51;0.93;;;0.22;;
17741;SDS011;8993;51.822;-2.268;2022-07-03T17:45:56;1.34;;;0.31;;
17741;SDS011;8993;51.822;-2.268;2022-07-03T17:51:00;1.66;;;0.33;;
17741;SDS011;8993;51.822;-2.268;2022-07-03T17:56:04;1.64;;;0.33;;
17741;SDS011;8993;51.822;-2.268;2022-07-03T18:01:08;1.63;;;0.26;;
17741;SDS011;8993;51.822;-2.268;2022-07-03T18:06:15;0.79;;;0.27;;
17741;SDS011;8993;51.822;-2.268;2022-07-03T18:11:17;2.23;;;0.28;;
17741;SDS011;8993;51.822;-2.268;2022-07-03T18:16:21;1.08;;;0.26;;
17741;SDS011;8993;51.822;-2.268;2022-07-03T18:21:26;1.53;;;0.25;;
17741;SDS011;8993;51.822;-2.268;2022-07-03T18:26:33;3.21;;;0.33;;
17741;SDS011;8993;51.822;-2.268;2022-07-03T18:31:36;1.60;;;0.30;;
17741;SDS011;8993;51.822;-2.268;2022-07-03T18:36:39;1.42;;;0.23;;
17741;SDS011;8993;51.822;-2.268;2022-07-03T18:41:42;1.59;;;0.30;;
17741;SDS011;8993;51.822;-2.268;2022-07-03T18:46:48;2.44;;;0.52;;
17741;SDS011;8993;51.822;-2.268;2022-07-03T18:51:53;2.28;;;0.40;;
17741;SDS011;8993;51.822;-2.268;2022-07-03T18:57:01;1.09;;;0.30;;
17741;SDS011;8993;51.822;-2.268;2022-07-03T19:02:03;1.36;;;0.26;;
17741;SDS011;8993;51.822;-2.268;2022-07-03T19:07:08;2.23;;;0.29;;
17741;SDS011;8993;51.822;-2.268;2022-07-03T19:12:12;1.49;;;0.28;;
17741;SDS011;8993;51.822;-2.268;2022-07-03T19:17:17;1.01;;;0.27;;
17741;SDS011;8993;51.822;-2.268;2022-07-03T19:22:21;1.26;;;0.21;;
17741;SDS011;8993;51.822;-2.268;2022-07-03T19:27:26;1.24;;;0.30;;
17741;SDS011;8993;51.822;-2.268;2022-07-03T19:32:31;0.60;;;0.21;;
17741;SDS011;8993;51.822;-2.268;2022-07-03T19:37:35;2.03;;;0.29;;
17741;SDS011;8993;51.822;-2.268;2022-07-03T19:42:39;2.10;;;0.27;;
17741;SDS011;8993;51.822;-2.268;2022-07-03T19:47:43;0.80;;;0.22;;
17741;SDS011;8993;51.822;-2.268;2022-07-03T19:52:47;1.49;;;0.28;;
17741;SDS011;8993;51.822;-2.268;2022-07-03T19:57:51;1.73;;;0.34;;
17741;SDS011;8993;51.822;-2.268;2022-07-03T20:02:57;1.46;;;0.29;;
17741;SDS011;8993;51.822;-2.268;2022-07-03T20:08:01;0.93;;;0.34;;
17741;SDS011;8993;51.822;-2.268;2022-07-03T20:13:05;2.57;;;0.54;;
17741;SDS011;8993;51.822;-2.268;2022-07-03T20:18:09;1.77;;;0.48;;
17741;SDS011;8993;51.822;-2.268;2022-07-03T20:23:14;2.03;;;0.47;;
17741;SDS011;8993;51.822;-2.268;2022-07-03T20:28:17;2.45;;;0.50;;
17741;SDS011;8993;51.822;-2.268;2022-07-03T20:33:22;1.31;;;0.36;;
17741;SDS011;8993;51.822;-2.268;2022-07-03T20:38:25;1.06;;;0.25;;
17741;SDS011;8993;51.822;-2.268;2022-07-03T20:43:30;1.34;;;0.31;;
17741;SDS011;8993;51.822;-2.268;2022-07-03T20:48:35;1.51;;;0.38;;
17741;SDS011;8993;51.822;-2.268;2022-07-03T20:53:39;2.00;;;0.36;;
17741;SDS011;8993;51.822;-2.268;2022-07-03T20:58:43;1.81;;;0.42;;
17741;SDS011;8993;51.822;-2.268;2022-07-03T21:03:47;1.64;;;0.41;;
17741;SDS011;8993;51.822;-2.268;2022-07-03T21:08:52;2.79;;;0.54;;
17741;SDS011;8993;51.822;-2.268;2022-07-03T21:13:55;1.61;;;0.49;;
17741;SDS011;8993;51.822;-2.268;2022-07-03T21:19:00;2.02;;;0.49;;
17741;SDS011;8993;51.822;-2.268;2022-07-03T21:24:04;3.26;;;0.56;;
17741;SDS011;8993;51.822;-2.268;2022-07-03T21:29:07;1.74;;;0.68;;
17741;SDS011;8993;51.822;-2.268;2022-07-03T21:34:12;1.88;;;0.70;;
17741;SDS011;8993;51.822;-2.268;2022-07-03T21:39:16;2.93;;;0.88;;
17741;SDS011;8993;51.822;-2.268;2022-07-03T21:44:20;2.35;;;1.20;;
17741;SDS011;8993;51.822;-2.268;2022-07-03T21:49:24;4.12;;;1.37;;
17741;SDS011;8993;51.822;-2.268;2022-07-03T21:54:28;3.84;;;1.41;;
17741;SDS011;8993;51.822;-2.268;2022-07-03T21:59:32;3.45;;;1.33;;
17741;SDS011;8993;51.822;-2.268;2022-07-03T22:04:37;3.54;;;1.21;;
17741;SDS011;8993;51.822;-2.268;2022-07-03T22:09:41;3.33;;;1.05;;
17741;SDS011;8993;51.822;-2.268;2022-07-03T22:14:45;2.65;;;0.81;;
17741;SDS011;8993;51.822;-2.268;2022-07-03T22:19:49;2.90;;;0.73;;
17741;SDS011;8993;51.822;-2.268;2022-07-03T22:24:54;1.64;;;0.82;;
17741;SDS011;8993;51.822;-2.268;2022-07-03T22:29:58;3.37;;;0.94;;
17741;SDS011;8993;51.822;-2.268;2022-07-03T22:35:02;2.78;;;0.90;;
17741;SDS011;8993;51.822;-2.268;2022-07-03T22:40:06;2.69;;;0.82;;
17741;SDS011;8993;51.822;-2.268;2022-07-03T22:45:10;2.55;;;0.89;;
17741;SDS011;8993;51.822;-2.268;2022-07-03T22:50:14;2.18;;;0.71;;
17741;SDS011;8993;51.822;-2.268;2022-07-03T22:55:18;0.89;;;0.50;;
17741;SDS011;8993;51.822;-2.268;2022-07-03T23:00:22;3.76;;;0.71;;
17741;SDS011;8993;51.822;-2.268;2022-07-03T23:05:26;2.32;;;0.78;;
17741;SDS011;8993;51.822;-2.268;2022-07-03T23:10:30;2.24;;;0.61;;
17741;SDS011;8993;51.822;-2.268;2022-07-03T23:15:35;2.12;;;0.77;;
17741;SDS011;8993;51.822;-2.268;2022-07-03T23:20:39;1.71;;;0.71;;
17741;SDS011;8993;51.822;-2.268;2022-07-03T23:25:43;1.15;;;0.58;;
17741;SDS011;8993;51.822;-2.268;2022-07-03T23:30:46;3.01;;;0.75;;
17741;SDS011;8993;51.822;-2.268;2022-07-03T23:35:51;1.19;;;0.59;;
17741;SDS011;8993;51.822;-2.268;2022-07-03T23:40:55;3.91;;;0.84;;
17741;SDS011;8993;51.822;-2.268;2022-07-03T23:45:59;2.34;;;0.67;;
17741;SDS011;8993;51.822;-2.268;2022-07-03T23:51:03;2.43;;;0.71;;
17741;SDS011;8993;51.822;-2.268;2022-07-03T23:56:07;1.13;;;0.50;;
